sensor_id;sensor_type;location;lat;lon;timestamp;pressure;altitude;pressure_sealevel;temperature;humidity
71457;BME280;59263;48.160;11.752;2023-03-13T00:00:50;95594.84;;;4.52;100.00
71457;BME280;59263;48.160;11.752;2023-03-13T00:03:16;95599.53;;;4.58;100.00
71457;BME280;59263;48.160;11.752;2023-03-13T00:05:41;95603.47;;;4.51;100.00
71457;BME280;59263;48.160;11.752;2023-03-13T00:08:06;95582.84;;;4.42;100.00
71457;BME280;59263;48.160;11.752;2023-03-13T00:10:32;95577.44;;;4.33;100.00
71457;BME280;59263;48.160;11.752;2023-03-13T00:12:57;95585.25;;;4.32;100.00
71457;BME280;59263;48.160;11.752;2023-03-13T00:15:22;95576.16;;;4.28;100.00
71457;BME280;59263;48.160;11.752;2023-03-13T00:17:47;95557.38;;;4.16;100.00
71457;BME280;59263;48.160;11.752;2023-03-13T00:20:13;95572.28;;;4.22;100.00
71457;BME280;59263;48.160;11.752;2023-03-13T00:22:41;95563.41;;;4.15;100.00
71457;BME280;59263;48.160;11.752;2023-03-13T00:25:07;95568.84;;;4.10;100.00
71457;BME280;59263;48.160;11.752;2023-03-13T00:27:33;95558.09;;;3.94;100.00
71457;BME280;59263;48.160;11.752;2023-03-13T00:29:59;95563.19;;;3.94;100.00
71457;BME280;59263;48.160;11.752;2023-03-13T00:32:24;95565.25;;;3.89;100.00
71457;BME280;59263;48.160;11.752;2023-03-13T00:34:49;95555.47;;;3.83;100.00
71457;BME280;59263;48.160;11.752;2023-03-13T00:37:15;95546.91;;;3.71;100.00
71457;BME280;59263;48.160;11.752;2023-03-13T00:39:40;95548.94;;;3.79;100.00
71457;BME280;59263;48.160;11.752;2023-03-13T00:42:05;95543.97;;;3.64;100.00
71457;BME280;59263;48.160;11.752;2023-03-13T00:44:31;95530.44;;;3.62;100.00
71457;BME280;59263;48.160;11.752;2023-03-13T00:46:56;95542.63;;;3.72;100.00
71457;BME280;59263;48.160;11.752;2023-03-13T00:49:21;95532.00;;;3.65;100.00
71457;BME280;59263;48.160;11.752;2023-03-13T00:51:47;95525.06;;;3.54;100.00
71457;BME280;59263;48.160;11.752;2023-03-13T00:54:12;95533.53;;;3.68;100.00
71457;BME280;59263;48.160;11.752;2023-03-13T00:56:37;95535.56;;;3.62;100.00
71457;BME280;59263;48.160;11.752;2023-03-13T00:59:03;95517.94;;;3.47;100.00
71457;BME280;59263;48.160;11.752;2023-03-13T01:01:33;95522.94;;;3.48;100.00
71457;BME280;59263;48.160;11.752;2023-03-13T01:04:05;95527.34;;;3.46;100.00
71457;BME280;59263;48.160;11.752;2023-03-13T01:06:33;95511.41;;;3.30;100.00
71457;BME280;59263;48.160;11.752;2023-03-13T01:08:59;95525.75;;;3.32;100.00
71457;BME280;59263;48.160;11.752;2023-03-13T01:11:27;95498.06;;;3.13;100.00
71457;BME280;59263;48.160;11.752;2023-03-13T01:13:55;95517.19;;;3.21;100.00
71457;BME280;59263;48.160;11.752;2023-03-13T01:16:22;95501.03;;;3.07;100.00
71457;BME280;59263;48.160;11.752;2023-03-13T01:18:50;95521.28;;;3.10;100.00
71457;BME280;59263;48.160;11.752;2023-03-13T01:21:19;95507.19;;;3.05;100.00
71457;BME280;59263;48.160;11.752;2023-03-13T01:23:46;95512.31;;;3.05;100.00
71457;BME280;59263;48.160;11.752;2023-03-13T01:26:12;95503.09;;;3.02;100.00
71457;BME280;59263;48.160;11.752;2023-03-13T01:28:38;95503.31;;;2.99;100.00
71457;BME280;59263;48.160;11.752;2023-03-13T01:33:40;95500.47;;;2.91;100.00
71457;BME280;59263;48.160;11.752;2023-03-13T01:36:06;95482.69;;;2.77;100.00
71457;BME280;59263;48.160;11.752;2023-03-13T01:38:31;95471.06;;;2.73;100.00
71457;BME280;59263;48.160;11.752;2023-03-13T01:40:56;95488.31;;;2.82;100.00
71457;BME280;59263;48.160;11.752;2023-03-13T01:43:25;95490.34;;;2.77;100.00
71457;BME280;59263;48.160;11.752;2023-03-13T01:51:06;95490.66;;;2.59;100.00
71457;BME280;59263;48.160;11.752;2023-03-13T01:53:34;95491.09;;;2.53;100.00
71457;BME280;59263;48.160;11.752;2023-03-13T01:56:03;95493.13;;;2.48;100.00
71457;BME280;59263;48.160;11.752;2023-03-13T01:58:30;95471.03;;;2.22;100.00
71457;BME280;59263;48.160;11.752;2023-03-13T02:00:56;95509.25;;;2.36;100.00
71457;BME280;59263;48.160;11.752;2023-03-13T02:03:22;95487.78;;;2.26;100.00
71457;BME280;59263;48.160;11.752;2023-03-13T02:05:49;95462.06;;;2.16;100.00
71457;BME280;59263;48.160;11.752;2023-03-13T02:08:21;95474.94;;;2.27;100.00
71457;BME280;59263;48.160;11.752;2023-03-13T02:11:18;95480.88;;;2.28;100.00
71457;BME280;59263;48.160;11.752;2023-03-13T02:13:45;95473.50;;;2.23;100.00
71457;BME280;59263;48.160;11.752;2023-03-13T02:16:11;95470.47;;;2.31;100.00
71457;BME280;59263;48.160;11.752;2023-03-13T02:18:37;95459.50;;;2.29;100.00
71457;BME280;59263;48.160;11.752;2023-03-13T02:21:13;95455.25;;;2.42;100.00
71457;BME280;59263;48.160;11.752;2023-03-13T02:26:32;95446.66;;;2.43;100.00
71457;BME280;59263;48.160;11.752;2023-03-13T02:28:57;95446.75;;;2.54;100.00
71457;BME280;59263;48.160;11.752;2023-03-13T02:31:23;95452.25;;;2.48;100.00
71457;BME280;59263;48.160;11.752;2023-03-13T02:33:48;95452.78;;;2.53;100.00
71457;BME280;59263;48.160;11.752;2023-03-13T02:36:15;95458.81;;;2.52;100.00
71457;BME280;59263;48.160;11.752;2023-03-13T02:39:10;95466.38;;;2.54;100.00
71457;BME280;59263;48.160;11.752;2023-03-13T02:41:37;95461.97;;;2.43;100.00
71457;BME280;59263;48.160;11.752;2023-03-13T02:44:04;95466.75;;;2.48;100.00
71457;BME280;59263;48.160;11.752;2023-03-13T02:46:42;95461.97;;;2.43;100.00
71457;BME280;59263;48.160;11.752;2023-03-13T02:49:27;95466.97;;;2.45;100.00
71457;BME280;59263;48.160;11.752;2023-03-13T02:51:59;95479.97;;;2.41;100.00
71457;BME280;59263;48.160;11.752;2023-03-13T02:54:34;95458.00;;;2.39;100.00
71457;BME280;59263;48.160;11.752;2023-03-13T02:57:02;95474.53;;;2.46;100.00
71457;BME280;59263;48.160;11.752;2023-03-13T02:59:27;95464.53;;;2.43;100.00
71457;BME280;59263;48.160;11.752;2023-03-13T03:01:53;95462.06;;;2.54;100.00
71457;BME280;59263;48.160;11.752;2023-03-13T03:04:23;95477.41;;;2.67;100.00
71457;BME280;59263;48.160;11.752;2023-03-13T03:06:49;95474.72;;;2.69;100.00
71457;BME280;59263;48.160;11.752;2023-03-13T03:09:14;95427.84;;;2.44;100.00
71457;BME280;59263;48.160;11.752;2023-03-13T03:11:40;95464.72;;;2.65;100.00
71457;BME280;59263;48.160;11.752;2023-03-13T03:14:06;95453.28;;;2.71;100.00
71457;BME280;59263;48.160;11.752;2023-03-13T03:16:31;95468.28;;;2.76;100.00
71457;BME280;59263;48.160;11.752;2023-03-13T03:18:57;95476.44;;;2.81;100.00
71457;BME280;59263;48.160;11.752;2023-03-13T03:21:22;95440.81;;;2.66;100.00
71457;BME280;59263;48.160;11.752;2023-03-13T03:23:49;95473.50;;;2.87;100.00
71457;BME280;59263;48.160;11.752;2023-03-13T03:26:14;95470.63;;;2.91;100.00
71457;BME280;59263;48.160;11.752;2023-03-13T03:28:40;95470.00;;;3.01;100.00
71457;BME280;59263;48.160;11.752;2023-03-13T03:31:07;95456.50;;;2.99;100.00
71457;BME280;59263;48.160;11.752;2023-03-13T03:33:32;95471.22;;;3.08;100.00
71457;BME280;59263;48.160;11.752;2023-03-13T03:36:02;95463.44;;;3.09;100.00
71457;BME280;59263;48.160;11.752;2023-03-13T03:38:31;95444.59;;;3.10;100.00
71457;BME280;59263;48.160;11.752;2023-03-13T03:40:57;95459.47;;;3.29;100.00
71457;BME280;59263;48.160;11.752;2023-03-13T03:43:22;95461.13;;;3.30;100.00
71457;BME280;59263;48.160;11.752;2023-03-13T03:45:48;95453.16;;;3.22;100.00
71457;BME280;59263;48.160;11.752;2023-03-13T03:48:13;95462.63;;;3.33;100.00
71457;BME280;59263;48.160;11.752;2023-03-13T03:50:39;95466.84;;;3.34;100.00
71457;BME280;59263;48.160;11.752;2023-03-13T03:53:04;95440.88;;;3.27;100.00
71457;BME280;59263;48.160;11.752;2023-03-13T03:55:29;95444.72;;;3.33;100.00
71457;BME280;59263;48.160;11.752;2023-03-13T03:57:57;95450.56;;;3.35;100.00
71457;BME280;59263;48.160;11.752;2023-03-13T04:00:23;95449.84;;;3.33;100.00
71457;BME280;59263;48.160;11.752;2023-03-13T04:02:49;95451.91;;;3.28;100.00
71457;BME280;59263;48.160;11.752;2023-03-13T04:05:14;95432.88;;;3.32;100.00
71457;BME280;59263;48.160;11.752;2023-03-13T04:07:39;95449.84;;;3.33;100.00
71457;BME280;59263;48.160;11.752;2023-03-13T04:10:05;95441.47;;;3.31;100.00
71457;BME280;59263;48.160;11.752;2023-03-13T04:12:31;95413.31;;;3.20;100.00
71457;BME280;59263;48.160;11.752;2023-03-13T04:14:56;95432.88;;;3.32;100.00
71457;BME280;59263;48.160;11.752;2023-03-13T04:17:21;95416.53;;;3.22;100.00
71457;BME280;59263;48.160;11.752;2023-03-13T04:19:46;95427.97;;;3.29;100.00
71457;BME280;59263;48.160;11.752;2023-03-13T04:22:12;95416.13;;;3.28;100.00
71457;BME280;59263;48.160;11.752;2023-03-13T04:24:37;95416.31;;;3.37;100.00
71457;BME280;59263;48.160;11.752;2023-03-13T04:27:02;95422.22;;;3.38;100.00
71457;BME280;59263;48.160;11.752;2023-03-13T04:29:31;95398.63;;;3.34;100.00
71457;BME280;59263;48.160;11.752;2023-03-13T04:31:56;95399.22;;;3.38;100.00
71457;BME280;59263;48.160;11.752;2023-03-13T04:34:21;95400.28;;;3.47;100.00
71457;BME280;59263;48.160;11.752;2023-03-13T04:36:47;95395.34;;;3.56;100.00
71457;BME280;59263;48.160;11.752;2023-03-13T04:39:12;95377.19;;;3.59;100.00
71457;BME280;59263;48.160;11.752;2023-03-13T04:41:37;95377.69;;;3.64;100.00
71457;BME280;59263;48.160;11.752;2023-03-13T04:44:03;95360.13;;;3.60;100.00
71457;BME280;59263;48.160;11.752;2023-03-13T04:46:28;95366.97;;;3.71;100.00
71457;BME280;59263;48.160;11.752;2023-03-13T04:48:53;95379.47;;;3.75;100.00
71457;BME280;59263;48.160;11.752;2023-03-13T04:51:19;95365.13;;;3.73;100.00
71457;BME280;59263;48.160;11.752;2023-03-13T04:53:44;95354.94;;;3.84;100.00
71457;BME280;59263;48.160;11.752;2023-03-13T04:56:11;95363.31;;;3.86;100.00
71457;BME280;59263;48.160;11.752;2023-03-13T04:58:40;95346.53;;;3.82;100.00
71457;BME280;59263;48.160;11.752;2023-03-13T05:01:06;95347.28;;;3.95;100.00
71457;BME280;59263;48.160;11.752;2023-03-13T05:03:31;95351.22;;;3.99;100.00
71457;BME280;59263;48.160;11.752;2023-03-13T05:05:57;95348.91;;;4.07;100.00
71457;BME280;59263;48.160;11.752;2023-03-13T05:08:22;95351.25;;;4.10;100.00
71457;BME280;59263;48.160;11.752;2023-03-13T05:10:47;95346.03;;;4.12;100.00
71457;BME280;59263;48.160;11.752;2023-03-13T05:13:12;95340.41;;;4.18;100.00
71457;BME280;59263;48.160;11.752;2023-03-13T05:15:38;95353.22;;;4.29;100.00
71457;BME280;59263;48.160;11.752;2023-03-13T05:18:03;95337.63;;;4.32;100.00
71457;BME280;59263;48.160;11.752;2023-03-13T05:20:29;95338.44;;;4.33;100.00
71457;BME280;59263;48.160;11.752;2023-03-13T05:22:54;95342.66;;;4.34;100.00
71457;BME280;59263;48.160;11.752;2023-03-13T05:25:19;95338.22;;;4.36;100.00
71457;BME280;59263;48.160;11.752;2023-03-13T05:27:45;95343.09;;;4.39;100.00
71457;BME280;59263;48.160;11.752;2023-03-13T05:30:10;95336.38;;;4.38;100.00
71457;BME280;59263;48.160;11.752;2023-03-13T05:32:36;95341.91;;;4.66;100.00
71457;BME280;59263;48.160;11.752;2023-03-13T05:35:01;95331.06;;;4.73;100.00
71457;BME280;59263;48.160;11.752;2023-03-13T05:37:26;95323.31;;;4.64;100.00
71457;BME280;59263;48.160;11.752;2023-03-13T05:39:52;95329.44;;;4.72;100.00
71457;BME280;59263;48.160;11.752;2023-03-13T05:42:17;95322.13;;;4.68;100.00
71457;BME280;59263;48.160;11.752;2023-03-13T05:44:42;95333.06;;;4.70;100.00
71457;BME280;59263;48.160;11.752;2023-03-13T05:47:08;95315.34;;;4.67;100.00
71457;BME280;59263;48.160;11.752;2023-03-13T05:49:34;95323.97;;;4.66;100.00
71457;BME280;59263;48.160;11.752;2023-03-13T05:51:59;95313.72;;;4.66;100.00
71457;BME280;59263;48.160;11.752;2023-03-13T05:54:24;95315.03;;;4.71;100.00
71457;BME280;59263;48.160;11.752;2023-03-13T05:56:50;95322.44;;;4.74;100.00
71457;BME280;59263;48.160;11.752;2023-03-13T05:59:17;95318.94;;;4.87;100.00
71457;BME280;59263;48.160;11.752;2023-03-13T06:01:42;95317.41;;;4.84;100.00
71457;BME280;59263;48.160;11.752;2023-03-13T06:04:08;95316.94;;;4.90;100.00
71457;BME280;59263;48.160;11.752;2023-03-13T06:06:33;95318.34;;;4.94;100.00
71457;BME280;59263;48.160;11.752;2023-03-13T06:08:58;95303.44;;;4.88;100.00
71457;BME280;59263;48.160;11.752;2023-03-13T06:11:24;95318.22;;;4.84;100.00
71457;BME280;59263;48.160;11.752;2023-03-13T06:13:52;95290.63;;;4.77;100.00
71457;BME280;59263;48.160;11.752;2023-03-13T06:16:18;95257.59;;;4.63;100.00
71457;BME280;59263;48.160;11.752;2023-03-13T06:18:44;95291.09;;;4.93;100.00
71457;BME280;59263;48.160;11.752;2023-03-13T06:21:09;95280.88;;;5.03;100.00
71457;BME280;59263;48.160;11.752;2023-03-13T06:23:35;95275.59;;;5.16;100.00
71457;BME280;59263;48.160;11.752;2023-03-13T06:26:01;95269.97;;;5.22;100.00
71457;BME280;59263;48.160;11.752;2023-03-13T06:28:26;95280.41;;;5.30;100.00
71457;BME280;59263;48.160;11.752;2023-03-13T06:30:52;95269.00;;;5.34;100.00
71457;BME280;59263;48.160;11.752;2023-03-13T06:33:17;95260.16;;;5.48;100.00
71457;BME280;59263;48.160;11.752;2023-03-13T06:35:43;95267.22;;;5.55;100.00
71457;BME280;59263;48.160;11.752;2023-03-13T06:38:09;95268.59;;;5.59;100.00
71457;BME280;59263;48.160;11.752;2023-03-13T06:40:35;95272.03;;;5.70;100.00
71457;BME280;59263;48.160;11.752;2023-03-13T06:43:00;95268.16;;;5.75;100.00
71457;BME280;59263;48.160;11.752;2023-03-13T06:45:25;95257.25;;;5.83;100.00
71457;BME280;59263;48.160;11.752;2023-03-13T06:47:51;95270.22;;;6.02;100.00
71457;BME280;59263;48.160;11.752;2023-03-13T06:50:16;95273.38;;;6.16;100.00
71457;BME280;59263;48.160;11.752;2023-03-13T06:52:42;95262.81;;;6.19;100.00
71457;BME280;59263;48.160;11.752;2023-03-13T06:55:08;95265.56;;;6.27;100.00
71457;BME280;59263;48.160;11.752;2023-03-13T06:57:34;95251.47;;;6.21;100.00
71457;BME280;59263;48.160;11.752;2023-03-13T06:59:59;95267.91;;;6.40;100.00
71457;BME280;59263;48.160;11.752;2023-03-13T07:02:24;95262.50;;;6.52;100.00
71457;BME280;59263;48.160;11.752;2023-03-13T07:04:50;95264.69;;;6.47;100.00
71457;BME280;59263;48.160;11.752;2023-03-13T07:07:15;95259.25;;;6.41;100.00
71457;BME280;59263;48.160;11.752;2023-03-13T07:09:40;95268.03;;;6.38;100.00
71457;BME280;59263;48.160;11.752;2023-03-13T07:12:06;95269.63;;;6.29;100.00
71457;BME280;59263;48.160;11.752;2023-03-13T07:14:31;95263.25;;;6.24;100.00
71457;BME280;59263;48.160;11.752;2023-03-13T07:16:58;95273.53;;;6.24;100.00
71457;BME280;59263;48.160;11.752;2023-03-13T07:19:23;95265.13;;;6.22;100.00
71457;BME280;59263;48.160;11.752;2023-03-13T07:21:49;95261.59;;;6.13;100.00
71457;BME280;59263;48.160;11.752;2023-03-13T07:24:14;95252.66;;;6.07;100.00
71457;BME280;59263;48.160;11.752;2023-03-13T07:26:39;95237.78;;;6.01;100.00
71457;BME280;59263;48.160;11.752;2023-03-13T07:29:05;95261.34;;;6.26;100.00
71457;BME280;59263;48.160;11.752;2023-03-13T07:31:30;95274.41;;;6.34;100.00
71457;BME280;59263;48.160;11.752;2023-03-13T07:33:58;95270.31;;;6.41;100.00
71457;BME280;59263;48.160;11.752;2023-03-13T07:36:24;95259.94;;;6.52;100.00
71457;BME280;59263;48.160;11.752;2023-03-13T07:38:50;95265.63;;;6.56;100.00
71457;BME280;59263;48.160;11.752;2023-03-13T07:41:16;95269.44;;;6.62;100.00
71457;BME280;59263;48.160;11.752;2023-03-13T07:43:42;95228.97;;;6.44;100.00
71457;BME280;59263;48.160;11.752;2023-03-13T07:46:11;95258.66;;;6.68;100.00
71457;BME280;59263;48.160;11.752;2023-03-13T07:48:39;95236.44;;;6.57;100.00
71457;BME280;59263;48.160;11.752;2023-03-13T07:51:07;95249.56;;;6.64;100.00
71457;BME280;59263;48.160;11.752;2023-03-13T07:53:34;95248.88;;;6.62;100.00
71457;BME280;59263;48.160;11.752;2023-03-13T07:56:01;95239.25;;;6.54;100.00
71457;BME280;59263;48.160;11.752;2023-03-13T07:58:29;95254.28;;;6.59;100.00
71457;BME280;59263;48.160;11.752;2023-03-13T08:00:55;95221.91;;;6.27;100.00
71457;BME280;59263;48.160;11.752;2023-03-13T08:03:21;95235.44;;;6.39;100.00
71457;BME280;59263;48.160;11.752;2023-03-13T08:05:47;95261.44;;;6.45;100.00
71457;BME280;59263;48.160;11.752;2023-03-13T08:08:21;95249.38;;;6.36;100.00
71457;BME280;59263;48.160;11.752;2023-03-13T08:10:46;95257.69;;;6.69;100.00
71457;BME280;59263;48.160;11.752;2023-03-13T08:13:12;95237.94;;;6.79;100.00
71457;BME280;59263;48.160;11.752;2023-03-13T08:15:37;95247.97;;;7.11;100.00
71457;BME280;59263;48.160;11.752;2023-03-13T08:18:02;95233.88;;;7.25;100.00
71457;BME280;59263;48.160;11.752;2023-03-13T08:20:30;95214.22;;;7.43;100.00
71457;BME280;59263;48.160;11.752;2023-03-13T08:22:56;95207.56;;;7.50;100.00
71457;BME280;59263;48.160;11.752;2023-03-13T08:25:24;95249.22;;;7.83;100.00
71457;BME280;59263;48.160;11.752;2023-03-13T08:27:50;95233.75;;;7.83;100.00
71457;BME280;59263;48.160;11.752;2023-03-13T08:30:15;95211.41;;;7.74;100.00
71457;BME280;59263;48.160;11.752;2023-03-13T08:32:40;95234.25;;;7.96;100.00
71457;BME280;59263;48.160;11.752;2023-03-13T08:35:06;95217.44;;;7.92;100.00
71457;BME280;59263;48.160;11.752;2023-03-13T08:37:32;95241.91;;;8.16;100.00
71457;BME280;59263;48.160;11.752;2023-03-13T08:39:57;95238.94;;;8.11;100.00
71457;BME280;59263;48.160;11.752;2023-03-13T08:42:23;95247.44;;;8.21;100.00
71457;BME280;59263;48.160;11.752;2023-03-13T08:44:48;95245.25;;;8.26;100.00
71457;BME280;59263;48.160;11.752;2023-03-13T08:47:14;95253.94;;;8.25;100.00
71457;BME280;59263;48.160;11.752;2023-03-13T08:49:39;95233.69;;;8.03;100.00
71457;BME280;59263;48.160;11.752;2023-03-13T08:52:05;95244.69;;;8.05;100.00
71457;BME280;59263;48.160;11.752;2023-03-13T08:54:31;95259.44;;;8.12;100.00
71457;BME280;59263;48.160;11.752;2023-03-13T08:56:59;95225.81;;;8.04;100.00
71457;BME280;59263;48.160;11.752;2023-03-13T08:59:25;95226.91;;;8.29;100.00
71457;BME280;59263;48.160;11.752;2023-03-13T09:01:50;95238.97;;;8.66;100.00
71457;BME280;59263;48.160;11.752;2023-03-13T09:04:17;95233.25;;;8.90;100.00
71457;BME280;59263;48.160;11.752;2023-03-13T09:06:49;95240.44;;;9.04;100.00
71457;BME280;59263;48.160;11.752;2023-03-13T09:09:15;95214.63;;;9.22;100.00
71457;BME280;59263;48.160;11.752;2023-03-13T09:11:40;95230.16;;;9.48;100.00
71457;BME280;59263;48.160;11.752;2023-03-13T09:14:06;95201.75;;;9.48;100.00
71457;BME280;59263;48.160;11.752;2023-03-13T09:16:33;95198.50;;;9.72;100.00
71457;BME280;59263;48.160;11.752;2023-03-13T09:18:59;95207.34;;;9.96;100.00
71457;BME280;59263;48.160;11.752;2023-03-13T09:21:33;95197.94;;;10.21;100.00
71457;BME280;59263;48.160;11.752;2023-03-13T09:24:02;95199.09;;;10.26;100.00
71457;BME280;59263;48.160;11.752;2023-03-13T09:26:27;95196.91;;;10.39;100.00
71457;BME280;59263;48.160;11.752;2023-03-13T09:28:53;95198.06;;;10.53;100.00
71457;BME280;59263;48.160;11.752;2023-03-13T09:31:21;95204.38;;;10.59;100.00
71457;BME280;59263;48.160;11.752;2023-03-13T09:33:48;95207.25;;;10.48;100.00
71457;BME280;59263;48.160;11.752;2023-03-13T09:36:14;95182.06;;;10.50;100.00
71457;BME280;59263;48.160;11.752;2023-03-13T09:38:40;95186.31;;;10.83;100.00
71457;BME280;59263;48.160;11.752;2023-03-13T09:41:38;95183.72;;;11.08;100.00
71457;BME280;59263;48.160;11.752;2023-03-13T09:44:11;95184.38;;;11.26;100.00
71457;BME280;59263;48.160;11.752;2023-03-13T09:47:00;95176.59;;;11.34;100.00
71457;BME280;59263;48.160;11.752;2023-03-13T09:52:14;95175.88;;;11.81;100.00
71457;BME280;59263;48.160;11.752;2023-03-13T09:54:55;95164.84;;;11.96;100.00
71457;BME280;59263;48.160;11.752;2023-03-13T09:57:27;95153.16;;;12.00;100.00
71457;BME280;59263;48.160;11.752;2023-03-13T10:00:18;95171.63;;;12.36;100.00
71457;BME280;59263;48.160;11.752;2023-03-13T10:03:37;95156.22;;;12.43;100.00
71457;BME280;59263;48.160;11.752;2023-03-13T10:05:38;95144.16;;;12.50;100.00
71457;BME280;59263;48.160;11.752;2023-03-13T10:08:29;95157.31;;;12.71;100.00
71457;BME280;59263;48.160;11.752;2023-03-13T10:11:24;95144.09;;;13.04;100.00
71457;BME280;59263;48.160;11.752;2023-03-13T10:14:02;95142.34;;;13.19;100.00
71457;BME280;59263;48.160;11.752;2023-03-13T10:16:33;95135.41;;;13.35;100.00
71457;BME280;59263;48.160;11.752;2023-03-13T10:19:11;95127.13;;;13.54;100.00
71457;BME280;59263;48.160;11.752;2023-03-13T10:21:39;95121.03;;;13.76;100.00
71457;BME280;59263;48.160;11.752;2023-03-13T10:26:50;95114.81;;;14.07;100.00
71457;BME280;59263;48.160;11.752;2023-03-13T10:29:21;95117.09;;;14.32;100.00
71457;BME280;59263;48.160;11.752;2023-03-13T10:32:01;95127.34;;;14.18;100.00
71457;BME280;59263;48.160;11.752;2023-03-13T10:34:29;95114.72;;;13.86;100.00
71457;BME280;59263;48.160;11.752;2023-03-13T10:37:34;95094.22;;;13.91;100.00
71457;BME280;59263;48.160;11.752;2023-03-13T10:40:13;95096.66;;;14.28;100.00
71457;BME280;59263;48.160;11.752;2023-03-13T10:42:44;95088.50;;;14.53;100.00
71457;BME280;59263;48.160;11.752;2023-03-13T10:45:15;95062.88;;;14.50;100.00
71457;BME280;59263;48.160;11.752;2023-03-13T10:47:42;95091.97;;;14.82;100.00
71457;BME280;59263;48.160;11.752;2023-03-13T10:50:17;95087.69;;;14.95;100.00
71457;BME280;59263;48.160;11.752;2023-03-13T10:52:47;95078.09;;;14.96;100.00
71457;BME280;59263;48.160;11.752;2023-03-13T10:55:25;95075.69;;;15.01;100.00
71457;BME280;59263;48.160;11.752;2023-03-13T10:58:02;95082.03;;;15.13;100.00
71457;BME280;59263;48.160;11.752;2023-03-13T11:00:36;95080.03;;;15.15;100.00
71457;BME280;59263;48.160;11.752;2023-03-13T11:03:17;95062.25;;;15.25;100.00
71457;BME280;59263;48.160;11.752;2023-03-13T11:05:43;95075.25;;;15.47;100.00
71457;BME280;59263;48.160;11.752;2023-03-13T11:10:56;95060.88;;;15.64;100.00
71457;BME280;59263;48.160;11.752;2023-03-13T11:16:03;95065.84;;;15.94;100.00
71457;BME280;59263;48.160;11.752;2023-03-13T11:24:23;95044.28;;;16.27;98.99
71457;BME280;59263;48.160;11.752;2023-03-13T11:30:02;95054.13;;;16.25;97.52
71457;BME280;59263;48.160;11.752;2023-03-13T11:33:00;95060.34;;;16.24;88.61
71457;BME280;59263;48.160;11.752;2023-03-13T11:35:36;95050.56;;;16.39;99.98
71457;BME280;59263;48.160;11.752;2023-03-13T11:38:12;95027.47;;;16.56;100.00
71457;BME280;59263;48.160;11.752;2023-03-13T11:41:04;95039.97;;;16.74;90.96
71457;BME280;59263;48.160;11.752;2023-03-13T11:44:03;95036.75;;;16.85;86.42
71457;BME280;59263;48.160;11.752;2023-03-13T11:46:42;95037.78;;;16.84;91.63
71457;BME280;59263;48.160;11.752;2023-03-13T11:52:23;95007.41;;;16.96;98.66
71457;BME280;59263;48.160;11.752;2023-03-13T11:55:11;95015.66;;;17.00;99.81
71457;BME280;59263;48.160;11.752;2023-03-13T11:57:52;95008.78;;;17.32;100.00
71457;BME280;59263;48.160;11.752;2023-03-13T12:00:29;94998.09;;;17.27;100.00
71457;BME280;59263;48.160;11.752;2023-03-13T12:03:05;95012.13;;;17.46;100.00
71457;BME280;59263;48.160;11.752;2023-03-13T12:05:42;94990.41;;;17.45;100.00
71457;BME280;59263;48.160;11.752;2023-03-13T12:08:15;94988.94;;;17.69;100.00
71457;BME280;59263;48.160;11.752;2023-03-13T12:10:51;94971.03;;;17.66;100.00
71457;BME280;59263;48.160;11.752;2023-03-13T12:13:39;94972.09;;;18.03;100.00
71457;BME280;59263;48.160;11.752;2023-03-13T12:16:11;94972.91;;;18.60;100.00
71457;BME280;59263;48.160;11.752;2023-03-13T12:18:41;94953.44;;;18.50;100.00
71457;BME280;59263;48.160;11.752;2023-03-13T12:21:21;94975.28;;;18.37;100.00
71457;BME280;59263;48.160;11.752;2023-03-13T12:24:28;94986.09;;;18.16;100.00
71457;BME280;59263;48.160;11.752;2023-03-13T12:27:02;94977.22;;;18.17;100.00
71457;BME280;59263;48.160;11.752;2023-03-13T12:29:47;94960.69;;;17.91;100.00
71457;BME280;59263;48.160;11.752;2023-03-13T12:35:06;94954.53;;;17.65;100.00
71457;BME280;59263;48.160;11.752;2023-03-13T12:43:15;94925.25;;;18.95;90.39
71457;BME280;59263;48.160;11.752;2023-03-13T12:48:36;94913.22;;;18.62;100.00
71457;BME280;59263;48.160;11.752;2023-03-13T12:51:28;94926.69;;;19.28;87.62
71457;BME280;59263;48.160;11.752;2023-03-13T12:57:15;94905.44;;;20.15;79.32
71457;BME280;59263;48.160;11.752;2023-03-13T12:59:49;94877.97;;;20.52;78.94
71457;BME280;59263;48.160;11.752;2023-03-13T13:02:22;94870.50;;;20.26;74.36
71457;BME280;59263;48.160;11.752;2023-03-13T13:04:50;94879.13;;;19.91;73.62
71457;BME280;59263;48.160;11.752;2023-03-13T13:12:34;94871.03;;;19.63;90.75
71457;BME280;59263;48.160;11.752;2023-03-13T13:15:15;94874.22;;;19.65;93.99
71457;BME280;59263;48.160;11.752;2023-03-13T13:18:12;94863.63;;;19.04;94.78
71457;BME280;59263;48.160;11.752;2023-03-13T13:20:47;94865.75;;;18.52;100.00
71457;BME280;59263;48.160;11.752;2023-03-13T13:28:56;94870.19;;;17.63;100.00
71457;BME280;59263;48.160;11.752;2023-03-13T13:36:53;94845.47;;;17.59;100.00
71457;BME280;59263;48.160;11.752;2023-03-13T13:39:34;94850.66;;;17.66;100.00
71457;BME280;59263;48.160;11.752;2023-03-13T13:47:43;94849.44;;;17.69;100.00
71457;BME280;59263;48.160;11.752;2023-03-13T13:50:26;94839.38;;;18.29;100.00
71457;BME280;59263;48.160;11.752;2023-03-13T13:53:41;94830.75;;;18.65;100.00
71457;BME280;59263;48.160;11.752;2023-03-13T13:56:30;94820.81;;;18.74;100.00
71457;BME280;59263;48.160;11.752;2023-03-13T13:58:59;94821.81;;;18.54;100.00
71457;BME280;59263;48.160;11.752;2023-03-13T14:01:27;94780.84;;;18.17;100.00
71457;BME280;59263;48.160;11.752;2023-03-13T14:04:02;94803.88;;;18.33;100.00
71457;BME280;59263;48.160;11.752;2023-03-13T14:06:33;94799.47;;;18.27;100.00
71457;BME280;59263;48.160;11.752;2023-03-13T14:09:13;94798.72;;;18.45;100.00